CheckWX is a tool to help pilots better visualize weather data.  It is not intended as a substitute for an official pre-flight weather briefing.

20:13:14 UTC

KREO METAR
Rome State Airport
Rome, Oregon, USA
Current

21 mins ago

KREO 231952Z AUTO 21/05 A3016 RMK AO1 SLP196 T02060050
Observed
Apr-23 @ 19:52 UTC
Visibility
Temperature
21°C / 70°F
Dewpoint
C / 41°F
Humidity
35%
Altimeter
30.16" Hg
Pressure
1021.32 hPa
Previous

1 hour ago

KREO 231852Z AUTO VRB03KT 21/05 A3018 RMK AO1 SLP205 T02060050
Observed
Apr-23 @ 18:52 UTC
Wind
  • Variable at 3 KTS
Visibility
Temperature
21°C / 70°F
Dewpoint
C / 41°F
Humidity
35%
Altimeter
30.18" Hg
Pressure
1022.02 hPa
Previous

2 hours ago

KREO 231752Z AUTO VRB04KT 19/05 A3020 RMK AO1 SLP210 T01940050 10194 20050 58004
Observed
Apr-23 @ 17:52 UTC
Wind
  • Variable at 4 KTS
Visibility
Temperature
19°C / 66°F
Dewpoint
C / 41°F
Humidity
40%
Altimeter
30.2" Hg
Pressure
1022.72 hPa